createdAt,value
2017-11-04T00:00:24.482Z,7.2
2017-11-04T00:01:26.375Z,7.2
2017-11-04T00:02:28.287Z,7.2
2017-11-04T00:03:30.242Z,7.2
2017-11-04T00:04:32.090Z,7.2
2017-11-04T00:05:33.990Z,7.2
2017-11-04T00:06:35.940Z,7.1
2017-11-04T00:07:38.245Z,7.1
2017-11-04T00:08:40.182Z,7.1
2017-11-04T00:09:42.183Z,7.1
2017-11-04T00:10:44.142Z,7
2017-11-04T00:11:46.105Z,7.1
2017-11-04T00:12:48.018Z,7.1
2017-11-04T00:13:49.917Z,6.9
2017-11-04T00:14:52.001Z,6.9
2017-11-04T00:15:53.911Z,7
2017-11-04T00:16:55.924Z,7.1
2017-11-04T00:17:57.842Z,7
2017-11-04T00:19:00.057Z,7
2017-11-04T00:20:01.934Z,7.1
2017-11-04T00:21:03.928Z,7
2017-11-04T00:22:06.026Z,7
2017-11-04T00:23:07.937Z,6.9
2017-11-04T00:24:09.848Z,6.9
2017-11-04T00:25:11.772Z,6.9
2017-11-04T00:26:13.685Z,6.9
2017-11-04T00:27:15.704Z,7
2017-11-04T00:28:17.658Z,7
2017-11-04T00:29:19.592Z,7.1
2017-11-04T00:30:21.457Z,7.1
2017-11-04T00:31:23.360Z,7.2
2017-11-04T00:32:25.333Z,7.1
2017-11-04T00:33:27.304Z,7
2017-11-04T00:34:29.277Z,7
2017-11-04T00:35:31.146Z,7
2017-11-04T00:36:33.095Z,6.9
2017-11-04T00:37:35.008Z,7
2017-11-04T00:38:36.925Z,6.9
2017-11-04T00:39:38.902Z,6.9
2017-11-04T00:40:40.833Z,6.9
2017-11-04T00:41:42.772Z,6.8
2017-11-04T00:42:44.764Z,6.8
2017-11-04T00:43:46.867Z,6.8
2017-11-04T00:44:48.836Z,6.9
2017-11-04T00:45:50.709Z,6.9
2017-11-04T00:46:52.612Z,6.9
2017-11-04T00:47:55.224Z,6.9
2017-11-04T00:48:57.674Z,6.9
2017-11-04T00:49:59.715Z,6.8
2017-11-04T00:51:01.681Z,6.8
2017-11-04T00:52:03.592Z,6.8
2017-11-04T00:53:05.560Z,6.8
2017-11-04T00:54:07.557Z,6.8
2017-11-04T00:55:09.391Z,6.7
2017-11-04T00:56:11.255Z,6.7
2017-11-04T00:57:13.135Z,6.7
2017-11-04T00:58:15.036Z,6.6
2017-11-04T00:59:16.938Z,6.6
2017-11-04T01:00:18.977Z,6.6
2017-11-04T01:01:20.895Z,6.6
2017-11-04T01:02:22.857Z,6.7
2017-11-04T01:03:24.792Z,6.7
2017-11-04T01:04:26.719Z,6.6
2017-11-04T01:05:28.666Z,6.5
2017-11-04T01:06:30.761Z,6.5
2017-11-04T01:07:32.712Z,6.5
2017-11-04T01:08:34.597Z,6.6
2017-11-04T01:09:36.525Z,6.6
2017-11-04T01:10:38.556Z,6.7
2017-11-04T01:11:40.417Z,6.8
2017-11-04T01:12:42.249Z,6.6
2017-11-04T01:13:44.193Z,6.5
2017-11-04T01:14:46.129Z,6.5
2017-11-04T01:15:48.013Z,6.4
2017-11-04T01:16:49.959Z,6.4
2017-11-04T01:17:51.905Z,6.4
2017-11-04T01:18:53.887Z,6.3
2017-11-04T01:19:55.793Z,6.2
2017-11-04T01:20:57.663Z,6.3
2017-11-04T01:21:59.596Z,6.3
2017-11-04T01:23:01.515Z,6.3
2017-11-04T01:24:03.557Z,6.2
2017-11-04T01:25:05.542Z,6.2
2017-11-04T01:26:07.496Z,6.2
2017-11-04T01:27:09.428Z,6.3
2017-11-04T01:28:11.346Z,6.5
2017-11-04T01:29:13.318Z,6.5
2017-11-04T01:30:15.237Z,6.5
2017-11-04T01:31:17.104Z,6.5
2017-11-04T01:32:19.028Z,6.4
2017-11-04T01:33:20.851Z,6.4
2017-11-04T01:34:22.762Z,6.3
2017-11-04T01:35:24.694Z,6.3
2017-11-04T01:36:26.647Z,6.3
2017-11-04T01:37:28.593Z,6.3
2017-11-04T01:38:30.429Z,6.3
2017-11-04T01:39:32.336Z,6.3
2017-11-04T01:40:34.476Z,6.3
2017-11-04T01:41:36.471Z,6.3
2017-11-04T01:42:38.376Z,6.5
2017-11-04T01:43:40.255Z,6.3
2017-11-04T01:44:42.199Z,6
2017-11-04T01:45:44.150Z,6
2017-11-04T01:46:46.102Z,6.1
2017-11-04T01:47:48.032Z,6.1
2017-11-04T01:48:49.935Z,6.1
2017-11-04T01:49:51.921Z,6
2017-11-04T01:50:53.884Z,6
2017-11-04T01:51:55.812Z,6
2017-11-04T01:52:57.772Z,5.9
2017-11-04T01:53:59.688Z,6
2017-11-04T01:55:01.628Z,5.9
2017-11-04T01:56:03.612Z,5.9
2017-11-04T01:57:05.430Z,5.9
2017-11-04T01:58:07.668Z,5.9
2017-11-04T01:59:09.621Z,6
2017-11-04T02:00:11.554Z,5.8
2017-11-04T02:01:13.695Z,5.9
2017-11-04T02:02:15.544Z,5.9
2017-11-04T02:03:17.453Z,5.9
2017-11-04T02:04:19.371Z,5.9
2017-11-04T02:05:21.280Z,5.9
2017-11-04T02:06:23.547Z,5.9
2017-11-04T02:07:25.423Z,5.9
2017-11-04T02:08:27.298Z,5.9
2017-11-04T02:09:29.286Z,5.9
2017-11-04T02:10:31.239Z,5.8
2017-11-04T02:11:33.176Z,5.9
2017-11-04T02:12:35.088Z,5.9
2017-11-04T02:13:36.981Z,5.9
2017-11-04T02:14:38.890Z,5.8
2017-11-04T02:15:40.832Z,5.7
2017-11-04T02:16:42.744Z,5.7
2017-11-04T02:17:44.662Z,5.8
2017-11-04T02:18:46.519Z,5.8
2017-11-04T02:19:48.425Z,5.8
2017-11-04T02:20:50.394Z,5.9
2017-11-04T02:21:52.328Z,5.8
2017-11-04T02:22:54.310Z,5.9
2017-11-04T02:23:56.470Z,5.9
2017-11-04T02:24:58.348Z,5.9
2017-11-04T02:26:00.276Z,5.9
2017-11-04T02:27:02.810Z,5.8
2017-11-04T02:28:04.677Z,5.8
2017-11-04T02:29:06.644Z,5.8
2017-11-04T02:30:08.614Z,5.7
2017-11-04T02:31:10.509Z,5.8
2017-11-04T02:32:12.415Z,5.9
2017-11-04T02:33:14.276Z,5.6
2017-11-04T02:34:16.141Z,5.6
2017-11-04T02:35:18.065Z,5.7
2017-11-04T02:36:20.013Z,5.6
2017-11-04T02:37:21.979Z,5.7
2017-11-04T02:38:23.868Z,5.7
2017-11-04T02:39:25.846Z,5.7
2017-11-04T02:40:27.817Z,5.6
2017-11-04T02:41:29.726Z,5.6
2017-11-04T02:42:31.717Z,5.7
2017-11-04T02:43:33.660Z,5.8
2017-11-04T02:44:35.584Z,5.8
2017-11-04T02:45:37.536Z,5.9
2017-11-04T02:46:39.508Z,6
2017-11-04T02:47:41.368Z,5.8
2017-11-04T02:48:43.259Z,5.9
2017-11-04T02:49:45.198Z,6
2017-11-04T02:50:47.271Z,6.1
2017-11-04T02:51:49.132Z,6
2017-11-04T02:52:51.093Z,5.8
2017-11-04T02:53:52.970Z,5.8
2017-11-04T02:54:54.870Z,6
2017-11-04T02:55:57.027Z,6
2017-11-04T02:56:59.005Z,5.9
2017-11-04T02:58:00.918Z,5.9
2017-11-04T02:59:02.852Z,6
2017-11-04T03:00:04.695Z,6
2017-11-04T03:01:06.659Z,6.2
2017-11-04T03:02:08.576Z,6.1
2017-11-04T03:03:10.418Z,6.2
2017-11-04T03:04:12.516Z,6.1
2017-11-04T03:05:14.491Z,5.9
2017-11-04T03:06:16.442Z,5.9
2017-11-04T03:07:18.346Z,6
2017-11-04T03:08:20.249Z,6
2017-11-04T03:09:22.250Z,5.9
2017-11-04T03:10:24.151Z,6
2017-11-04T03:11:26.100Z,5.9
2017-11-04T03:12:28.025Z,5.7
2017-11-04T03:13:29.924Z,5.8
2017-11-04T03:14:31.853Z,5.8
2017-11-04T03:15:33.804Z,5.8
2017-11-04T03:16:35.728Z,5.6
2017-11-04T03:17:37.630Z,5.7
2017-11-04T03:18:39.512Z,5.8
2017-11-04T03:19:41.432Z,5.7
2017-11-04T03:20:43.403Z,5.7
2017-11-04T03:21:45.379Z,5.7
2017-11-04T03:22:47.388Z,5.8
2017-11-04T03:23:49.335Z,5.9
2017-11-04T03:24:51.247Z,6.1
2017-11-04T03:25:53.140Z,6.1
2017-11-04T03:26:55.054Z,6.1
2017-11-04T03:27:56.938Z,5.9
2017-11-04T03:28:58.855Z,6.1
2017-11-04T03:30:00.806Z,5.8
2017-11-04T03:31:02.693Z,5.8
2017-11-04T03:32:04.620Z,5.9
2017-11-04T03:33:06.575Z,5.9
2017-11-04T03:34:08.497Z,5.7
2017-11-04T03:35:10.398Z,5.6
2017-11-04T03:36:12.332Z,5.6
2017-11-04T03:37:14.336Z,5.6
2017-11-04T03:38:16.284Z,5.6
2017-11-04T03:39:18.269Z,5.7
2017-11-04T03:40:20.186Z,5.7
2017-11-04T03:41:22.096Z,5.7
2017-11-04T03:42:24.008Z,5.8
2017-11-04T03:43:25.883Z,5.6
2017-11-04T03:44:27.751Z,5.7
2017-11-04T03:45:29.597Z,5.8
2017-11-04T03:46:31.524Z,5.7
2017-11-04T03:47:33.436Z,5.7
2017-11-04T03:48:35.419Z,5.7
2017-11-04T03:49:37.376Z,5.8
2017-11-04T03:50:39.322Z,5.7
2017-11-04T03:51:41.290Z,5.7
2017-11-04T03:52:43.233Z,5.8
2017-11-04T03:53:45.157Z,5.8
2017-11-04T03:54:47.026Z,5.7
2017-11-04T03:55:48.961Z,5.7
2017-11-04T03:56:50.875Z,5.6
2017-11-04T03:57:52.750Z,5.7
2017-11-04T03:58:54.709Z,5.6
2017-11-04T03:59:56.607Z,5.6
2017-11-04T04:00:58.525Z,5.8
2017-11-04T04:02:00.468Z,5.7
2017-11-04T04:03:02.367Z,5.8
2017-11-04T04:04:04.291Z,5.7
2017-11-04T04:05:06.164Z,5.8
2017-11-04T04:06:08.045Z,5.8
2017-11-04T04:07:09.989Z,5.8
2017-11-04T04:08:11.834Z,5.7
2017-11-04T04:09:13.954Z,5.7
2017-11-04T04:10:15.973Z,5.7
2017-11-04T04:11:17.921Z,5.8
2017-11-04T04:12:19.789Z,5.8
2017-11-04T04:13:22.248Z,5.8
2017-11-04T04:14:24.222Z,5.7
2017-11-04T04:15:26.230Z,5.8
2017-11-04T04:16:28.165Z,5.8
2017-11-04T04:17:30.050Z,5.9
2017-11-04T04:18:32.009Z,5.9
2017-11-04T04:19:34.016Z,5.9
2017-11-04T04:20:36.210Z,5.9
2017-11-04T04:21:38.176Z,5.9
2017-11-04T04:22:40.141Z,5.9
2017-11-04T04:23:42.060Z,5.8
2017-11-04T04:24:43.957Z,5.8
2017-11-04T04:25:45.877Z,5.8
2017-11-04T04:26:47.794Z,5.7
2017-11-04T04:27:49.614Z,5.9
2017-11-04T04:28:51.496Z,6
2017-11-04T04:29:53.352Z,5.9
2017-11-04T04:30:55.269Z,5.9
2017-11-04T04:31:57.207Z,6
2017-11-04T04:32:59.113Z,5.9
2017-11-04T04:34:01.011Z,5.9
2017-11-04T04:35:03.079Z,5.9
2017-11-04T04:36:05.010Z,5.9
2017-11-04T04:37:06.903Z,5.8
2017-11-04T04:38:08.765Z,5.7
2017-11-04T04:39:10.714Z,5.8
2017-11-04T04:40:12.685Z,6
2017-11-04T04:41:14.621Z,5.8
2017-11-04T04:42:16.529Z,5.7
2017-11-04T04:43:18.469Z,5.7
2017-11-04T04:44:20.395Z,5.7
2017-11-04T04:45:22.365Z,5.7
2017-11-04T04:46:24.869Z,5.7
2017-11-04T04:47:26.761Z,5.8
2017-11-04T04:48:28.715Z,5.8
2017-11-04T04:49:30.684Z,5.7
2017-11-04T04:50:32.671Z,5.7
2017-11-04T04:51:34.605Z,5.7
2017-11-04T04:52:36.444Z,5.8
2017-11-04T04:53:38.386Z,5.9
2017-11-04T04:54:40.304Z,5.7
2017-11-04T04:55:42.208Z,5.7
2017-11-04T04:56:44.097Z,5.6
2017-11-04T04:57:45.970Z,5.9
2017-11-04T04:58:47.901Z,6
2017-11-04T04:59:49.841Z,5.7
2017-11-04T05:00:51.810Z,5.8
2017-11-04T05:01:53.767Z,5.8
2017-11-04T05:02:55.742Z,5.8
2017-11-04T05:03:57.682Z,5.8
2017-11-04T05:04:59.647Z,5.7
2017-11-04T05:06:01.510Z,5.4
2017-11-04T05:07:03.394Z,5.5
2017-11-04T05:08:05.355Z,5.5
2017-11-04T05:09:07.344Z,5.5
2017-11-04T05:10:09.518Z,5.4
2017-11-04T05:11:11.476Z,5.6
2017-11-04T05:12:13.410Z,5.5
2017-11-04T05:13:15.543Z,5.5
2017-11-04T05:14:17.457Z,5.4
2017-11-04T05:15:19.370Z,5.3
2017-11-04T05:16:21.275Z,5.4
2017-11-04T05:17:23.242Z,5.4
2017-11-04T05:18:25.092Z,5.4
2017-11-04T05:19:27.022Z,5.4
2017-11-04T05:20:28.998Z,5.5
2017-11-04T05:21:30.946Z,5.4
2017-11-04T05:22:32.835Z,5.5
2017-11-04T05:23:34.883Z,5.4
2017-11-04T05:24:36.811Z,5.5
2017-11-04T05:25:38.764Z,5.4
2017-11-04T05:26:40.781Z,5.3
2017-11-04T05:27:42.687Z,5.4
2017-11-04T05:28:44.572Z,5.5
2017-11-04T05:29:46.465Z,5.4
2017-11-04T05:30:48.402Z,5.4
2017-11-04T05:31:50.578Z,5.5
2017-11-04T05:32:52.512Z,5.6
2017-11-04T05:33:54.378Z,5.5
2017-11-04T05:34:56.319Z,5.4
2017-11-04T05:35:58.234Z,5.4
2017-11-04T05:37:00.136Z,5.4
2017-11-04T05:38:02.071Z,5.4
2017-11-04T05:39:03.978Z,5.5
2017-11-04T05:40:05.847Z,5.5
2017-11-04T05:41:07.703Z,5.3
2017-11-04T05:42:09.647Z,5.3
2017-11-04T05:43:11.799Z,5.5
2017-11-04T05:44:13.698Z,5.2
2017-11-04T05:45:15.779Z,5.3
2017-11-04T05:46:17.686Z,5.3
2017-11-04T05:47:19.541Z,5.1
2017-11-04T05:48:21.731Z,5.2
2017-11-04T05:49:23.635Z,5.2
2017-11-04T05:50:25.488Z,5.2
2017-11-04T05:51:27.419Z,5.3
2017-11-04T05:52:29.407Z,5.2
2017-11-04T05:53:31.359Z,5.3
2017-11-04T05:54:33.263Z,5.3
2017-11-04T05:55:35.122Z,5.3
2017-11-04T05:56:36.987Z,5.4
2017-11-04T05:57:38.974Z,5.3
2017-11-04T05:58:40.834Z,5
2017-11-04T05:59:42.816Z,5
2017-11-04T06:00:44.752Z,5.2
2017-11-04T06:01:46.643Z,5.2
2017-11-04T06:02:48.554Z,5.2
2017-11-04T06:03:50.503Z,5.3
2017-11-04T06:04:52.403Z,5.3
2017-11-04T06:05:54.333Z,5.2
2017-11-04T06:06:56.266Z,5.1
2017-11-04T06:07:58.217Z,5.1
2017-11-04T06:09:00.202Z,5.1
2017-11-04T06:10:02.094Z,5.1
2017-11-04T06:11:03.973Z,5
2017-11-04T06:12:05.962Z,5.1
2017-11-04T06:13:07.911Z,5.3
2017-11-04T06:14:09.766Z,5.4
2017-11-04T06:15:11.612Z,5.3
2017-11-04T06:16:13.540Z,5.3
2017-11-04T06:17:15.483Z,5.3
2017-11-04T06:18:17.421Z,5.3
2017-11-04T06:19:19.355Z,5.4
2017-11-04T06:20:21.211Z,5.3
2017-11-04T06:21:23.094Z,5.4
2017-11-04T06:22:25.005Z,5.3
2017-11-04T06:23:27.001Z,5.3
2017-11-04T06:24:28.885Z,5.4
2017-11-04T06:25:30.801Z,5.3
2017-11-04T06:26:32.676Z,5.4
2017-11-04T06:27:34.607Z,5.3
2017-11-04T06:28:36.584Z,5.4
2017-11-04T06:29:38.540Z,5.4
2017-11-04T06:30:40.497Z,5.5
2017-11-04T06:31:42.433Z,5.4
2017-11-04T06:32:44.328Z,5.5
2017-11-04T06:33:46.231Z,5.5
2017-11-04T06:34:48.152Z,5.4
2017-11-04T06:35:50.031Z,5.5
2017-11-04T06:36:51.958Z,5.6
2017-11-04T06:37:53.866Z,5.6
2017-11-04T06:38:55.833Z,5.7
2017-11-04T06:39:57.720Z,5.7
2017-11-04T06:40:59.644Z,5.7
2017-11-04T06:42:01.599Z,5.7
2017-11-04T06:43:03.505Z,5.7
2017-11-04T06:44:05.496Z,5.7
2017-11-04T06:45:07.403Z,5.7
2017-11-04T06:46:09.270Z,5.6
2017-11-04T06:47:11.337Z,5.7
2017-11-04T06:48:13.264Z,5.6
2017-11-04T06:49:15.204Z,5.6
2017-11-04T06:50:17.140Z,5.6
2017-11-04T06:51:19.138Z,5.6
2017-11-04T06:52:21.014Z,5.6
2017-11-04T06:53:22.914Z,5.6
2017-11-04T06:54:24.976Z,5.6
2017-11-04T06:55:26.930Z,5.6
2017-11-04T06:56:28.842Z,5.4
2017-11-04T06:57:30.789Z,5.4
2017-11-04T06:58:32.885Z,5.5
2017-11-04T06:59:34.794Z,5.5
2017-11-04T07:00:36.783Z,5.6
2017-11-04T07:01:38.693Z,5.6
2017-11-04T07:02:40.579Z,5.6
2017-11-04T07:03:42.455Z,5.6
2017-11-04T07:04:44.475Z,5.6
2017-11-04T07:05:46.656Z,5.6
2017-11-04T07:06:48.571Z,5.6
2017-11-04T07:07:50.470Z,5.6
2017-11-04T07:08:52.323Z,5.6
2017-11-04T07:09:54.243Z,5.6
2017-11-04T07:10:56.128Z,5.7
2017-11-04T07:11:58.093Z,5.9
2017-11-04T07:12:59.942Z,5.8
2017-11-04T07:14:01.831Z,5.7
2017-11-04T07:15:03.857Z,5.6
2017-11-04T07:16:06.130Z,5.6
2017-11-04T07:17:08.029Z,5.8
2017-11-04T07:18:10.061Z,5.8
2017-11-04T07:19:12.235Z,5.7
2017-11-04T07:20:14.226Z,5.4
2017-11-04T07:21:16.104Z,5.3
2017-11-04T07:22:18.023Z,5.4
2017-11-04T07:23:19.975Z,5.6
2017-11-04T07:24:21.983Z,5.5
2017-11-04T07:25:23.969Z,5.5
2017-11-04T07:26:26.173Z,5.6
2017-11-04T07:27:28.288Z,5.6
2017-11-04T07:28:30.247Z,5.7
2017-11-04T07:29:32.169Z,5.8
2017-11-04T07:30:34.115Z,6
2017-11-04T07:31:36.012Z,6
2017-11-04T07:32:38.033Z,6.1
2017-11-04T07:33:39.973Z,6.2
2017-11-04T07:34:41.920Z,6.3
2017-11-04T07:35:44.146Z,6.4
2017-11-04T07:36:46.288Z,6.4
2017-11-04T07:37:48.236Z,6.4
2017-11-04T07:38:50.198Z,6.4
2017-11-04T07:39:52.213Z,6.4
2017-11-04T07:40:54.170Z,6.4
2017-11-04T07:41:56.047Z,6.5
2017-11-04T07:42:58.037Z,6.5
2017-11-04T07:43:59.933Z,6.5
2017-11-04T07:45:01.870Z,6.6
2017-11-04T07:46:03.864Z,6.6
2017-11-04T07:47:05.914Z,6.7
2017-11-04T07:48:07.856Z,6.7
2017-11-04T07:49:10.026Z,6.7
2017-11-04T07:50:12.816Z,6.8
2017-11-04T07:51:14.740Z,6.8
2017-11-04T07:52:16.592Z,6.9
2017-11-04T07:53:18.561Z,7
2017-11-04T07:54:20.484Z,7
2017-11-04T07:55:22.383Z,7.1
2017-11-04T07:56:24.372Z,7.1
2017-11-04T07:57:26.292Z,7.2
2017-11-04T07:58:28.226Z,7.2
2017-11-04T07:59:30.200Z,7.2
2017-11-04T08:00:32.125Z,7.1
2017-11-04T08:01:34.052Z,7.3
2017-11-04T08:02:35.980Z,7.4
2017-11-04T08:03:37.984Z,7.4
2017-11-04T08:04:39.921Z,7.4
2017-11-04T08:05:41.821Z,7.4
2017-11-04T08:06:43.779Z,7.4
2017-11-04T08:07:45.655Z,7.4
2017-11-04T08:08:47.611Z,7.5
2017-11-04T08:09:49.452Z,7.5
2017-11-04T08:10:51.368Z,7.4
2017-11-04T08:11:53.366Z,7.4
2017-11-04T08:12:55.374Z,7.4
2017-11-04T08:13:57.355Z,7.4
2017-11-04T08:14:59.280Z,7.5
2017-11-04T08:16:01.322Z,7.8
2017-11-04T08:17:03.217Z,8.2
2017-11-04T08:18:05.116Z,8.6
2017-11-04T08:19:07.023Z,8.7
2017-11-04T08:20:08.903Z,8.9
2017-11-04T08:21:10.784Z,8.7
2017-11-04T08:22:12.749Z,8.5
2017-11-04T08:23:14.945Z,8.5
2017-11-04T08:24:16.873Z,8.5
2017-11-04T08:25:18.935Z,8.5
2017-11-04T08:26:20.829Z,8.8
2017-11-04T08:27:22.832Z,8.8
2017-11-04T08:28:24.900Z,8.9
2017-11-04T08:29:26.842Z,8.8
2017-11-04T08:30:28.821Z,8.6
2017-11-04T08:31:30.772Z,8.5
2017-11-04T08:32:32.713Z,8.4
2017-11-04T08:33:34.625Z,8.3
2017-11-04T08:34:36.591Z,8.2
2017-11-04T08:35:40.816Z,8.1
2017-11-04T08:36:42.753Z,8.1
2017-11-04T08:37:44.731Z,8.2
2017-11-04T08:38:46.648Z,8.4
2017-11-04T08:39:48.515Z,8.4
2017-11-04T08:40:50.390Z,8.3
2017-11-04T08:41:52.323Z,8.4
2017-11-04T08:42:54.239Z,8.3
2017-11-04T08:43:56.159Z,8.3
2017-11-04T08:44:58.080Z,8.4
2017-11-04T08:46:00.051Z,8.4
2017-11-04T08:47:02.067Z,8.3
2017-11-04T08:48:04.011Z,8.5
2017-11-04T08:49:05.936Z,8.9
2017-11-04T08:50:07.910Z,9
2017-11-04T08:51:09.973Z,9.2
2017-11-04T08:52:11.910Z,9.4
2017-11-04T08:53:13.910Z,9.4
2017-11-04T08:54:15.738Z,9.5
2017-11-04T08:55:17.724Z,9.6
2017-11-04T08:56:19.652Z,9.7
2017-11-04T08:57:21.637Z,9.8
2017-11-04T08:58:23.688Z,10
2017-11-04T08:59:25.638Z,10.1
2017-11-04T09:00:27.612Z,10.4
2017-11-04T09:01:29.552Z,10.3
2017-11-04T09:02:31.557Z,10.2
2017-11-04T09:03:33.497Z,10.1
2017-11-04T09:04:35.460Z,9.9
2017-11-04T09:05:37.942Z,9.7
2017-11-04T09:06:39.918Z,9.4
2017-11-04T09:07:41.845Z,9.3
2017-11-04T09:08:43.809Z,9.2
2017-11-04T09:09:45.699Z,9.2
2017-11-04T09:10:47.620Z,9.2
2017-11-04T09:11:49.747Z,9.1
2017-11-04T09:12:51.667Z,9.1
2017-11-04T09:13:53.626Z,9
2017-11-04T09:14:55.813Z,9
2017-11-04T09:15:57.752Z,9.1
2017-11-04T09:16:59.639Z,9.2
2017-11-04T09:18:01.560Z,9.2
2017-11-04T09:19:03.600Z,9.3
2017-11-04T09:20:05.536Z,9.3
2017-11-04T09:21:07.541Z,9.3
2017-11-04T09:22:09.520Z,9.2
2017-11-04T09:23:11.411Z,9.2
2017-11-04T09:24:13.301Z,9.2
2017-11-04T09:25:15.242Z,9.2
2017-11-04T09:26:17.093Z,9.3
2017-11-04T09:27:19.039Z,9.2
2017-11-04T09:28:21.038Z,9.2
2017-11-04T09:29:23.111Z,9.2
2017-11-04T09:30:25.075Z,9.3
2017-11-04T09:31:27.148Z,9.2
2017-11-04T09:32:29.199Z,9.1
2017-11-04T09:33:31.155Z,9.2
2017-11-04T09:34:33.174Z,9.4
2017-11-04T09:35:35.079Z,9.5
2017-11-04T09:36:37.031Z,9.3
2017-11-04T09:37:39.230Z,9.2
2017-11-04T09:38:41.129Z,9.2
2017-11-04T09:39:43.053Z,9.2
2017-11-04T09:40:45.000Z,9.4
2017-11-04T09:41:47.001Z,9.3
2017-11-04T09:42:48.958Z,9.2
2017-11-04T09:43:50.916Z,9.2
2017-11-04T09:44:52.935Z,9.4
2017-11-04T09:45:54.859Z,9.4
2017-11-04T09:46:56.749Z,9.5
2017-11-04T09:47:58.706Z,9.6
2017-11-04T09:49:00.602Z,9.8
2017-11-04T09:50:02.555Z,10
2017-11-04T09:51:04.468Z,10
2017-11-04T09:52:06.409Z,10.1
2017-11-04T09:53:08.637Z,10.2
2017-11-04T09:54:10.527Z,10.2
2017-11-04T09:55:12.488Z,10.2
2017-11-04T09:56:14.465Z,10.4
2017-11-04T09:57:16.384Z,10.4
2017-11-04T09:58:18.280Z,10.5
2017-11-04T09:59:20.195Z,10.7
2017-11-04T10:00:22.203Z,11
2017-11-04T10:01:24.100Z,11.2
2017-11-04T10:02:26.054Z,11
2017-11-04T10:03:28.096Z,11
2017-11-04T10:04:30.009Z,10.9
2017-11-04T10:05:31.961Z,11
2017-11-04T10:06:33.854Z,10.9
2017-11-04T10:07:35.822Z,10.6
2017-11-04T10:08:37.727Z,10.6
2017-11-04T10:09:39.670Z,10.7
2017-11-04T10:10:41.653Z,10.8
2017-11-04T10:11:43.707Z,10.8
2017-11-04T10:12:45.636Z,10.8
2017-11-04T10:13:47.677Z,10.8
2017-11-04T10:14:49.648Z,10.7
2017-11-04T10:15:51.603Z,10.8
2017-11-04T10:16:53.639Z,10.9
2017-11-04T10:17:55.611Z,11
2017-11-04T10:18:57.593Z,10.9
2017-11-04T10:19:59.527Z,11.1
2017-11-04T10:21:01.545Z,11
2017-11-04T10:22:03.725Z,11.1
2017-11-04T10:23:05.729Z,10.9
2017-11-04T10:24:07.673Z,11.2
2017-11-04T10:25:09.637Z,11.1
2017-11-04T10:26:11.642Z,10.9
2017-11-04T10:27:13.701Z,11.1
2017-11-04T10:28:15.701Z,11.2
2017-11-04T10:29:17.621Z,11.4
2017-11-04T10:30:19.510Z,11.6
2017-11-04T10:31:21.459Z,11.5
2017-11-04T10:32:23.391Z,11.4
2017-11-04T10:33:25.623Z,11.6
2017-11-04T10:34:27.745Z,11.3
2017-11-04T10:35:29.707Z,11.6
2017-11-04T10:36:31.603Z,11.8
2017-11-04T10:37:33.505Z,11.8
2017-11-04T10:38:35.398Z,11.7
2017-11-04T10:39:37.291Z,11.7
2017-11-04T10:40:39.271Z,11.9
2017-11-04T10:41:41.208Z,11.9
2017-11-04T10:42:43.213Z,12
2017-11-04T10:43:45.264Z,12.2
2017-11-04T10:44:47.243Z,12.3
2017-11-04T10:45:49.164Z,12.2
2017-11-04T10:46:51.173Z,12.2
2017-11-04T10:47:53.161Z,12
2017-11-04T10:48:55.090Z,11.9
2017-11-04T10:49:57.001Z,12.1
2017-11-04T10:50:58.966Z,11.8
2017-11-04T10:52:00.929Z,11.4
2017-11-04T10:53:02.967Z,11.6
2017-11-04T10:54:05.263Z,11.6
2017-11-04T10:55:07.234Z,11.6
2017-11-04T10:56:09.146Z,11.8
2017-11-04T10:57:11.228Z,11.8
2017-11-04T10:58:13.391Z,11.7
2017-11-04T10:59:16.421Z,11.9
2017-11-04T11:00:18.450Z,11.9
2017-11-04T11:01:20.360Z,11.8
2017-11-04T11:02:22.433Z,11.6
2017-11-04T11:03:24.558Z,11.7
2017-11-04T11:04:26.463Z,11.7
2017-11-04T11:05:28.417Z,11.7
2017-11-04T11:06:30.325Z,11.8
2017-11-04T11:07:32.278Z,11.7
2017-11-04T11:08:34.697Z,11.8
2017-11-04T11:09:36.634Z,11.8
2017-11-04T11:10:38.588Z,11.8
2017-11-04T11:11:40.543Z,11.9
2017-11-04T11:12:42.497Z,11.8
2017-11-04T11:13:44.445Z,11.7
2017-11-04T11:14:46.392Z,11.6
2017-11-04T11:15:48.392Z,11.9
2017-11-04T11:16:50.360Z,11.9
2017-11-04T11:17:53.082Z,11.9
2017-11-04T11:18:55.015Z,11.8
2017-11-04T11:19:56.976Z,11.9
2017-11-04T11:20:59.171Z,12.1
2017-11-04T11:22:01.083Z,12.1
2017-11-04T11:23:03.073Z,11.9
2017-11-04T11:24:05.048Z,12
2017-11-04T11:25:06.955Z,12
2017-11-04T11:26:08.927Z,11.9
2017-11-04T11:27:10.924Z,11.9
2017-11-04T11:28:12.927Z,12
2017-11-04T11:29:14.830Z,12.1
2017-11-04T11:30:16.766Z,12.2
2017-11-04T11:31:19.328Z,12.2
2017-11-04T11:32:21.258Z,12
2017-11-04T11:33:23.299Z,12
2017-11-04T11:34:25.211Z,12.2
2017-11-04T11:35:27.180Z,12.2
2017-11-04T11:36:29.052Z,12.4
2017-11-04T11:37:30.902Z,12.2
2017-11-04T11:38:32.814Z,12.3
2017-11-04T11:39:34.907Z,12.5
2017-11-04T11:40:36.836Z,12.5
2017-11-04T11:41:38.781Z,12.4
2017-11-04T11:42:40.679Z,12.3
2017-11-04T11:43:42.673Z,12.3
2017-11-04T11:44:44.572Z,12.2
2017-11-04T11:45:46.508Z,12.1
2017-11-04T11:46:48.748Z,12.1
2017-11-04T11:47:50.754Z,12.2
2017-11-04T11:48:52.711Z,12.4
2017-11-04T11:49:54.608Z,12.3
2017-11-04T11:50:56.525Z,12.4
2017-11-04T11:51:58.493Z,12.5
2017-11-04T11:53:00.473Z,12.4
2017-11-04T11:54:02.478Z,12.4
2017-11-04T11:55:04.432Z,12.5
2017-11-04T11:56:06.299Z,12.7
2017-11-04T11:57:08.237Z,12.7
2017-11-04T11:58:10.219Z,12.6
2017-11-04T11:59:12.249Z,12.6
2017-11-04T12:00:14.184Z,12.4
2017-11-04T12:01:16.121Z,12.1
2017-11-04T12:02:18.023Z,12.1
2017-11-04T12:03:19.989Z,12.2
2017-11-04T12:04:21.903Z,12.1
2017-11-04T12:05:23.846Z,12.2
2017-11-04T12:06:26.254Z,12.2
2017-11-04T12:07:28.941Z,12.3
2017-11-04T12:08:30.971Z,12.4
2017-11-04T12:09:32.895Z,12.5
2017-11-04T12:10:34.952Z,12.6
2017-11-04T12:11:36.976Z,12.9
2017-11-04T12:12:38.887Z,12.9
2017-11-04T12:13:40.823Z,12.8
2017-11-04T12:14:42.802Z,12.7
2017-11-04T12:15:44.753Z,12.6
2017-11-04T12:16:46.865Z,12.5
2017-11-04T12:17:48.840Z,12.5
2017-11-04T12:18:50.725Z,12.4
2017-11-04T12:19:52.771Z,12.4
2017-11-04T12:20:54.700Z,12.2
2017-11-04T12:21:56.586Z,12.1
2017-11-04T12:22:58.591Z,12.2
2017-11-04T12:24:00.500Z,12.1
2017-11-04T12:25:02.775Z,12.1
2017-11-04T12:26:04.778Z,12.1
2017-11-04T12:27:06.680Z,12
2017-11-04T12:28:08.606Z,12.1
2017-11-04T12:29:10.572Z,12
2017-11-04T12:30:13.042Z,12
2017-11-04T12:31:14.996Z,12.1
2017-11-04T12:32:16.920Z,12.1
2017-11-04T12:33:18.782Z,12.1
2017-11-04T12:34:20.812Z,12.2
2017-11-04T12:35:22.724Z,12.3
2017-11-04T12:36:24.735Z,12.3
2017-11-04T12:37:26.660Z,12.4
2017-11-04T12:38:28.697Z,12.3
2017-11-04T12:39:30.675Z,12.3
2017-11-04T12:40:32.954Z,12
2017-11-04T12:41:34.874Z,12.1
2017-11-04T12:42:36.800Z,12.1
2017-11-04T12:43:38.754Z,12.1
2017-11-04T12:44:40.706Z,12.1
2017-11-04T12:45:42.921Z,12.1
2017-11-04T12:46:44.822Z,11.9
2017-11-04T12:47:46.762Z,12
2017-11-04T12:48:48.741Z,12.1
2017-11-04T12:49:50.680Z,12.3
2017-11-04T12:50:52.621Z,12.3
2017-11-04T12:51:54.833Z,12.4
2017-11-04T12:52:56.741Z,12.4
2017-11-04T12:53:58.621Z,12.6
2017-11-04T12:55:00.464Z,12.6
2017-11-04T12:56:02.353Z,12.5
2017-11-04T12:57:04.359Z,12.5
2017-11-04T12:58:06.236Z,12.4
2017-11-04T12:59:08.154Z,12.6
2017-11-04T13:00:10.130Z,12.5
2017-11-04T13:01:12.054Z,12.5
2017-11-04T13:02:14.033Z,12.5
2017-11-04T13:03:15.993Z,12.4
2017-11-04T13:04:17.907Z,12.3
2017-11-04T13:05:19.887Z,12.3
2017-11-04T13:06:21.842Z,12.3
2017-11-04T13:07:23.772Z,12.2
2017-11-04T13:08:25.688Z,12.3
2017-11-04T13:09:27.593Z,12.3
2017-11-04T13:10:29.518Z,12.3
2017-11-04T13:11:31.491Z,12.2
2017-11-04T13:12:33.415Z,12.1
2017-11-04T13:13:35.358Z,12.1
2017-11-04T13:14:37.280Z,12.1
2017-11-04T13:15:39.204Z,12
2017-11-04T13:16:41.188Z,11.9
2017-11-04T13:17:43.384Z,11.7
2017-11-04T13:18:45.305Z,11.9
2017-11-04T13:19:47.266Z,11.9
2017-11-04T13:20:49.218Z,11.8
2017-11-04T13:21:51.416Z,11.7
2017-11-04T13:22:53.353Z,11.8
2017-11-04T13:23:55.264Z,11.8
2017-11-04T13:24:57.149Z,11.8
2017-11-04T13:25:59.117Z,11.8
2017-11-04T13:27:01.054Z,11.8
2017-11-04T13:28:03.017Z,11.8
2017-11-04T13:29:04.971Z,11.8
2017-11-04T13:30:06.918Z,11.7
2017-11-04T13:31:08.839Z,11.7
2017-11-04T13:32:10.733Z,11.7
2017-11-04T13:33:12.641Z,11.6
2017-11-04T13:34:14.597Z,11.5
2017-11-04T13:35:16.479Z,11.3
2017-11-04T13:36:18.362Z,11.5
2017-11-04T13:37:20.385Z,11.5
2017-11-04T13:38:22.237Z,11.5
2017-11-04T13:39:24.173Z,11.5
2017-11-04T13:40:26.131Z,11.4
2017-11-04T13:41:28.041Z,11.5
2017-11-04T13:42:29.903Z,11.4
2017-11-04T13:43:31.873Z,11.3
2017-11-04T13:44:33.805Z,11.3
2017-11-04T13:45:35.709Z,11.3
2017-11-04T13:46:37.627Z,11.3
2017-11-04T13:47:39.903Z,11.4
2017-11-04T13:48:41.831Z,11.4
2017-11-04T13:49:43.755Z,11.3
2017-11-04T13:50:45.634Z,11.3
2017-11-04T13:51:47.496Z,11.3
2017-11-04T13:52:49.429Z,11.4
2017-11-04T13:53:51.276Z,11.3
2017-11-04T13:54:53.273Z,11.3
2017-11-04T13:55:55.296Z,11.3
2017-11-04T13:56:57.242Z,11.3
2017-11-04T13:57:59.527Z,11.2
2017-11-04T13:59:01.418Z,11.3
2017-11-04T14:00:03.410Z,11.2
2017-11-04T14:01:05.335Z,11.4
2017-11-04T14:02:07.254Z,11.4
2017-11-04T14:03:09.385Z,11.4
2017-11-04T14:04:11.395Z,11.3
2017-11-04T14:05:13.348Z,11.4
2017-11-04T14:06:15.417Z,11.4
2017-11-04T14:07:18.032Z,11.4
2017-11-04T14:08:19.938Z,11.4